sensor_id;sensor_type;location;lat;lon;timestamp;P1;durP1;ratioP1;P2;durP2;ratioP2
17214;SDS011;8723;51.502;6.918;2023-06-14T00:00:45;18.20;;;17.20;;
17214;SDS011;8723;51.502;6.918;2023-06-14T00:03:13;20.47;;;19.17;;
17214;SDS011;8723;51.502;6.918;2023-06-14T00:05:44;22.08;;;20.75;;
17214;SDS011;8723;51.502;6.918;2023-06-14T00:08:12;20.33;;;19.17;;
17214;SDS011;8723;51.502;6.918;2023-06-14T00:10:39;23.88;;;22.67;;
17214;SDS011;8723;51.502;6.918;2023-06-14T00:13:07;22.93;;;21.73;;
17214;SDS011;8723;51.502;6.918;2023-06-14T00:15:34;19.63;;;18.55;;
17214;SDS011;8723;51.502;6.918;2023-06-14T00:18:01;22.48;;;21.33;;
17214;SDS011;8723;51.502;6.918;2023-06-14T00:20:28;21.77;;;20.65;;
17214;SDS011;8723;51.502;6.918;2023-06-14T00:22:59;19.60;;;18.60;;
17214;SDS011;8723;51.502;6.918;2023-06-14T00:25:26;21.02;;;19.83;;
17214;SDS011;8723;51.502;6.918;2023-06-14T00:27:52;21.95;;;20.83;;
17214;SDS011;8723;51.502;6.918;2023-06-14T00:30:20;20.23;;;18.50;;
17214;SDS011;8723;51.502;6.918;2023-06-14T00:32:47;19.48;;;18.48;;
17214;SDS011;8723;51.502;6.918;2023-06-14T00:35:14;22.50;;;21.27;;
17214;SDS011;8723;51.502;6.918;2023-06-14T00:37:41;23.88;;;22.67;;
17214;SDS011;8723;51.502;6.918;2023-06-14T00:40:10;24.60;;;23.30;;
17214;SDS011;8723;51.502;6.918;2023-06-14T00:42:37;23.37;;;22.27;;
17214;SDS011;8723;51.502;6.918;2023-06-14T00:45:04;23.23;;;22.02;;
17214;SDS011;8723;51.502;6.918;2023-06-14T00:47:31;22.50;;;21.38;;
17214;SDS011;8723;51.502;6.918;2023-06-14T00:49:58;22.97;;;21.77;;
17214;SDS011;8723;51.502;6.918;2023-06-14T00:52:26;25.10;;;23.80;;
17214;SDS011;8723;51.502;6.918;2023-06-14T00:54:54;23.17;;;22.08;;
17214;SDS011;8723;51.502;6.918;2023-06-14T00:57:22;23.50;;;22.30;;
17214;SDS011;8723;51.502;6.918;2023-06-14T00:59:49;21.08;;;19.98;;
17214;SDS011;8723;51.502;6.918;2023-06-14T01:02:17;22.27;;;21.13;;
17214;SDS011;8723;51.502;6.918;2023-06-14T01:04:45;24.83;;;23.47;;
17214;SDS011;8723;51.502;6.918;2023-06-14T01:07:15;20.40;;;19.40;;
17214;SDS011;8723;51.502;6.918;2023-06-14T01:09:48;21.88;;;20.77;;
17214;SDS011;8723;51.502;6.918;2023-06-14T01:12:27;19.63;;;18.52;;
17214;SDS011;8723;51.502;6.918;2023-06-14T01:15:02;17.47;;;16.47;;
17214;SDS011;8723;51.502;6.918;2023-06-14T01:17:29;20.23;;;19.13;;
17214;SDS011;8723;51.502;6.918;2023-06-14T01:19:58;19.83;;;18.80;;
17214;SDS011;8723;51.502;6.918;2023-06-14T01:22:27;20.17;;;19.08;;
17214;SDS011;8723;51.502;6.918;2023-06-14T01:24:56;20.88;;;19.77;;
17214;SDS011;8723;51.502;6.918;2023-06-14T01:27:23;21.52;;;20.48;;
17214;SDS011;8723;51.502;6.918;2023-06-14T01:29:53;20.20;;;19.07;;
17214;SDS011;8723;51.502;6.918;2023-06-14T01:32:22;25.43;;;24.13;;
17214;SDS011;8723;51.502;6.918;2023-06-14T01:34:50;24.70;;;23.40;;
17214;SDS011;8723;51.502;6.918;2023-06-14T01:37:17;24.88;;;23.65;;
17214;SDS011;8723;51.502;6.918;2023-06-14T01:39:45;26.75;;;25.35;;
17214;SDS011;8723;51.502;6.918;2023-06-14T01:42:17;26.95;;;25.70;;
17214;SDS011;8723;51.502;6.918;2023-06-14T01:44:48;26.98;;;25.67;;
17214;SDS011;8723;51.502;6.918;2023-06-14T01:47:16;24.52;;;23.33;;
17214;SDS011;8723;51.502;6.918;2023-06-14T01:49:46;29.57;;;28.07;;
17214;SDS011;8723;51.502;6.918;2023-06-14T01:52:16;28.83;;;27.33;;
17214;SDS011;8723;51.502;6.918;2023-06-14T01:54:45;32.55;;;30.95;;
17214;SDS011;8723;51.502;6.918;2023-06-14T01:57:17;24.17;;;23.02;;
17214;SDS011;8723;51.502;6.918;2023-06-14T01:59:47;30.13;;;28.63;;
17214;SDS011;8723;51.502;6.918;2023-06-14T02:02:16;27.95;;;26.55;;
17214;SDS011;8723;51.502;6.918;2023-06-14T02:04:46;32.35;;;30.85;;
17214;SDS011;8723;51.502;6.918;2023-06-14T02:07:16;36.87;;;35.17;;
17214;SDS011;8723;51.502;6.918;2023-06-14T02:09:45;38.53;;;36.72;;
17214;SDS011;8723;51.502;6.918;2023-06-14T02:12:12;34.35;;;32.85;;
17214;SDS011;8723;51.502;6.918;2023-06-14T02:14:40;31.33;;;29.92;;
17214;SDS011;8723;51.502;6.918;2023-06-14T02:17:07;33.33;;;31.83;;
17214;SDS011;8723;51.502;6.918;2023-06-14T02:19:34;31.48;;;29.98;;
17214;SDS011;8723;51.502;6.918;2023-06-14T02:22:04;22.15;;;21.08;;
17214;SDS011;8723;51.502;6.918;2023-06-14T02:24:34;25.77;;;24.48;;
17214;SDS011;8723;51.502;6.918;2023-06-14T02:27:04;24.38;;;23.17;;
17214;SDS011;8723;51.502;6.918;2023-06-14T02:29:34;21.27;;;20.17;;
17214;SDS011;8723;51.502;6.918;2023-06-14T02:32:03;21.50;;;20.27;;
17214;SDS011;8723;51.502;6.918;2023-06-14T02:34:32;18.92;;;18.00;;
17214;SDS011;8723;51.502;6.918;2023-06-14T02:37:01;19.55;;;18.40;;
17214;SDS011;8723;51.502;6.918;2023-06-14T02:39:27;18.10;;;17.10;;
17214;SDS011;8723;51.502;6.918;2023-06-14T02:41:54;21.40;;;20.05;;
17214;SDS011;8723;51.502;6.918;2023-06-14T02:44:24;20.03;;;18.93;;
17214;SDS011;8723;51.502;6.918;2023-06-14T02:46:52;18.63;;;17.63;;
17214;SDS011;8723;51.502;6.918;2023-06-14T02:49:21;30.42;;;29.02;;
17214;SDS011;8723;51.502;6.918;2023-06-14T02:51:48;28.48;;;27.08;;
17214;SDS011;8723;51.502;6.918;2023-06-14T02:54:15;29.27;;;27.88;;
17214;SDS011;8723;51.502;6.918;2023-06-14T02:56:42;29.23;;;27.70;;
17214;SDS011;8723;51.502;6.918;2023-06-14T02:59:09;26.77;;;25.58;;
17214;SDS011;8723;51.502;6.918;2023-06-14T03:01:39;25.42;;;24.23;;
17214;SDS011;8723;51.502;6.918;2023-06-14T03:04:08;23.60;;;22.50;;
17214;SDS011;8723;51.502;6.918;2023-06-14T03:06:39;26.80;;;25.55;;
17214;SDS011;8723;51.502;6.918;2023-06-14T03:09:10;25.45;;;24.05;;
17214;SDS011;8723;51.502;6.918;2023-06-14T03:11:39;23.88;;;22.63;;
17214;SDS011;8723;51.502;6.918;2023-06-14T03:14:09;20.73;;;19.63;;
17214;SDS011;8723;51.502;6.918;2023-06-14T03:16:36;23.17;;;22.02;;
17214;SDS011;8723;51.502;6.918;2023-06-14T03:19:03;23.20;;;22.08;;
17214;SDS011;8723;51.502;6.918;2023-06-14T03:21:30;19.80;;;18.70;;
17214;SDS011;8723;51.502;6.918;2023-06-14T03:23:58;17.95;;;17.05;;
17214;SDS011;8723;51.502;6.918;2023-06-14T03:26:25;18.65;;;17.75;;
17214;SDS011;8723;51.502;6.918;2023-06-14T03:28:52;16.85;;;15.95;;
17214;SDS011;8723;51.502;6.918;2023-06-14T03:31:19;18.80;;;17.90;;
17214;SDS011;8723;51.502;6.918;2023-06-14T03:33:46;15.27;;;14.48;;
17214;SDS011;8723;51.502;6.918;2023-06-14T03:36:13;14.07;;;13.17;;
17214;SDS011;8723;51.502;6.918;2023-06-14T03:38:40;13.85;;;12.95;;
17214;SDS011;8723;51.502;6.918;2023-06-14T03:41:08;11.93;;;10.93;;
17214;SDS011;8723;51.502;6.918;2023-06-14T03:43:34;11.15;;;10.25;;
17214;SDS011;8723;51.502;6.918;2023-06-14T03:46:01;11.18;;;10.32;;
17214;SDS011;8723;51.502;6.918;2023-06-14T03:48:28;14.40;;;13.30;;
17214;SDS011;8723;51.502;6.918;2023-06-14T03:50:55;12.67;;;11.93;;
17214;SDS011;8723;51.502;6.918;2023-06-14T03:53:22;11.27;;;10.43;;
17214;SDS011;8723;51.502;6.918;2023-06-14T03:55:49;11.65;;;10.85;;
17214;SDS011;8723;51.502;6.918;2023-06-14T03:58:18;11.70;;;11.00;;
17214;SDS011;8723;51.502;6.918;2023-06-14T04:00:45;12.10;;;11.40;;
17214;SDS011;8723;51.502;6.918;2023-06-14T04:03:12;13.05;;;12.35;;
17214;SDS011;8723;51.502;6.918;2023-06-14T04:05:40;10.88;;;9.88;;
17214;SDS011;8723;51.502;6.918;2023-06-14T04:08:08;11.63;;;10.82;;
17214;SDS011;8723;51.502;6.918;2023-06-14T04:10:35;11.27;;;10.57;;
17214;SDS011;8723;51.502;6.918;2023-06-14T04:13:03;13.63;;;12.82;;
17214;SDS011;8723;51.502;6.918;2023-06-14T04:15:33;9.90;;;9.20;;
17214;SDS011;8723;51.502;6.918;2023-06-14T04:18:00;10.75;;;10.00;;
17214;SDS011;8723;51.502;6.918;2023-06-14T04:20:27;12.75;;;12.05;;
17214;SDS011;8723;51.502;6.918;2023-06-14T04:22:56;20.90;;;19.50;;
17214;SDS011;8723;51.502;6.918;2023-06-14T04:25:23;10.52;;;9.80;;
17214;SDS011;8723;51.502;6.918;2023-06-14T04:27:51;11.80;;;11.00;;
17214;SDS011;8723;51.502;6.918;2023-06-14T04:30:18;11.98;;;11.27;;
17214;SDS011;8723;51.502;6.918;2023-06-14T04:32:47;11.90;;;11.00;;
17214;SDS011;8723;51.502;6.918;2023-06-14T04:35:14;13.13;;;12.25;;
17214;SDS011;8723;51.502;6.918;2023-06-14T04:37:42;17.15;;;16.15;;
17214;SDS011;8723;51.502;6.918;2023-06-14T04:40:10;17.42;;;16.42;;
17214;SDS011;8723;51.502;6.918;2023-06-14T04:42:37;11.60;;;10.97;;
17214;SDS011;8723;51.502;6.918;2023-06-14T04:45:06;14.00;;;13.00;;
17214;SDS011;8723;51.502;6.918;2023-06-14T04:47:34;13.15;;;12.45;;
17214;SDS011;8723;51.502;6.918;2023-06-14T04:50:04;15.63;;;14.73;;
17214;SDS011;8723;51.502;6.918;2023-06-14T04:52:31;16.77;;;15.70;;
17214;SDS011;8723;51.502;6.918;2023-06-14T04:54:58;12.95;;;11.90;;
17214;SDS011;8723;51.502;6.918;2023-06-14T04:57:25;12.52;;;11.80;;
17214;SDS011;8723;51.502;6.918;2023-06-14T04:59:51;14.35;;;13.55;;
17214;SDS011;8723;51.502;6.918;2023-06-14T05:02:20;18.55;;;17.35;;
17214;SDS011;8723;51.502;6.918;2023-06-14T05:04:48;12.80;;;12.07;;
17214;SDS011;8723;51.502;6.918;2023-06-14T05:07:16;13.73;;;12.82;;
17214;SDS011;8723;51.502;6.918;2023-06-14T05:09:43;19.67;;;18.63;;
17214;SDS011;8723;51.502;6.918;2023-06-14T05:12:10;11.73;;;11.10;;
17214;SDS011;8723;51.502;6.918;2023-06-14T05:14:37;13.88;;;13.18;;
17214;SDS011;8723;51.502;6.918;2023-06-14T05:17:04;12.50;;;11.57;;
17214;SDS011;8723;51.502;6.918;2023-06-14T05:19:31;16.08;;;15.20;;
17214;SDS011;8723;51.502;6.918;2023-06-14T05:21:58;9.35;;;8.75;;
17214;SDS011;8723;51.502;6.918;2023-06-14T05:24:26;9.50;;;8.88;;
17214;SDS011;8723;51.502;6.918;2023-06-14T05:26:57;12.63;;;11.73;;
17214;SDS011;8723;51.502;6.918;2023-06-14T05:29:24;11.43;;;10.63;;
17214;SDS011;8723;51.502;6.918;2023-06-14T05:31:51;13.38;;;12.57;;
17214;SDS011;8723;51.502;6.918;2023-06-14T05:34:17;9.85;;;9.30;;
17214;SDS011;8723;51.502;6.918;2023-06-14T05:36:44;13.57;;;12.70;;
17214;SDS011;8723;51.502;6.918;2023-06-14T05:39:11;12.63;;;11.68;;
17214;SDS011;8723;51.502;6.918;2023-06-14T05:41:41;12.68;;;11.88;;
17214;SDS011;8723;51.502;6.918;2023-06-14T05:44:09;16.38;;;15.48;;
17214;SDS011;8723;51.502;6.918;2023-06-14T05:46:35;15.13;;;14.27;;
17214;SDS011;8723;51.502;6.918;2023-06-14T05:49:05;12.98;;;12.18;;
17214;SDS011;8723;51.502;6.918;2023-06-14T05:51:31;15.85;;;14.75;;
17214;SDS011;8723;51.502;6.918;2023-06-14T05:53:58;15.00;;;14.07;;
17214;SDS011;8723;51.502;6.918;2023-06-14T05:56:26;13.50;;;12.70;;
17214;SDS011;8723;51.502;6.918;2023-06-14T05:58:54;12.57;;;11.90;;
17214;SDS011;8723;51.502;6.918;2023-06-14T06:01:21;10.85;;;10.18;;
17214;SDS011;8723;51.502;6.918;2023-06-14T06:03:47;16.83;;;16.02;;
17214;SDS011;8723;51.502;6.918;2023-06-14T06:06:14;13.10;;;12.07;;
17214;SDS011;8723;51.502;6.918;2023-06-14T06:08:41;13.63;;;12.93;;
17214;SDS011;8723;51.502;6.918;2023-06-14T06:11:08;15.10;;;14.10;;
17214;SDS011;8723;51.502;6.918;2023-06-14T06:13:35;16.17;;;15.20;;
17214;SDS011;8723;51.502;6.918;2023-06-14T06:16:05;18.33;;;17.08;;
17214;SDS011;8723;51.502;6.918;2023-06-14T06:18:32;21.30;;;20.20;;
17214;SDS011;8723;51.502;6.918;2023-06-14T06:20:59;21.98;;;20.88;;
17214;SDS011;8723;51.502;6.918;2023-06-14T06:23:28;24.92;;;23.73;;
17214;SDS011;8723;51.502;6.918;2023-06-14T06:25:55;24.80;;;23.60;;
17214;SDS011;8723;51.502;6.918;2023-06-14T06:28:21;26.15;;;24.95;;
17214;SDS011;8723;51.502;6.918;2023-06-14T06:30:48;30.52;;;29.13;;
17214;SDS011;8723;51.502;6.918;2023-06-14T06:33:16;28.90;;;27.40;;
17214;SDS011;8723;51.502;6.918;2023-06-14T06:35:43;33.65;;;32.05;;
17214;SDS011;8723;51.502;6.918;2023-06-14T06:38:10;24.92;;;23.83;;
17214;SDS011;8723;51.502;6.918;2023-06-14T06:40:37;27.48;;;26.17;;
17214;SDS011;8723;51.502;6.918;2023-06-14T06:43:04;26.70;;;25.40;;
17214;SDS011;8723;51.502;6.918;2023-06-14T06:45:30;29.98;;;28.48;;
17214;SDS011;8723;51.502;6.918;2023-06-14T06:47:58;30.38;;;29.08;;
17214;SDS011;8723;51.502;6.918;2023-06-14T06:50:26;42.22;;;40.42;;
17214;SDS011;8723;51.502;6.918;2023-06-14T06:52:53;31.75;;;30.45;;
17214;SDS011;8723;51.502;6.918;2023-06-14T06:55:20;49.92;;;47.92;;
17214;SDS011;8723;51.502;6.918;2023-06-14T06:57:47;44.90;;;43.10;;
17214;SDS011;8723;51.502;6.918;2023-06-14T07:00:15;41.22;;;39.60;;
17214;SDS011;8723;51.502;6.918;2023-06-14T07:02:42;29.65;;;28.35;;
17214;SDS011;8723;51.502;6.918;2023-06-14T07:05:09;34.20;;;32.72;;
17214;SDS011;8723;51.502;6.918;2023-06-14T07:07:37;29.37;;;28.03;;
17214;SDS011;8723;51.502;6.918;2023-06-14T07:10:04;46.63;;;44.73;;
17214;SDS011;8723;51.502;6.918;2023-06-14T07:12:32;61.53;;;58.95;;
17214;SDS011;8723;51.502;6.918;2023-06-14T07:15:04;71.57;;;68.75;;
17214;SDS011;8723;51.502;6.918;2023-06-14T07:17:32;70.40;;;67.60;;
17214;SDS011;8723;51.502;6.918;2023-06-14T07:20:00;70.07;;;67.28;;
17214;SDS011;8723;51.502;6.918;2023-06-14T07:22:38;51.22;;;48.92;;
17214;SDS011;8723;51.502;6.918;2023-06-14T07:25:07;75.72;;;72.72;;
17214;SDS011;8723;51.502;6.918;2023-06-14T07:27:34;67.20;;;64.60;;
17214;SDS011;8723;51.502;6.918;2023-06-14T07:30:01;86.78;;;83.35;;
17214;SDS011;8723;51.502;6.918;2023-06-14T07:32:28;92.70;;;88.93;;
17214;SDS011;8723;51.502;6.918;2023-06-14T07:34:54;92.95;;;89.05;;
17214;SDS011;8723;51.502;6.918;2023-06-14T07:37:21;58.05;;;55.63;;
17214;SDS011;8723;51.502;6.918;2023-06-14T07:39:49;95.78;;;91.97;;
17214;SDS011;8723;51.502;6.918;2023-06-14T07:42:16;74.95;;;71.82;;
17214;SDS011;8723;51.502;6.918;2023-06-14T07:44:43;81.47;;;78.23;;
17214;SDS011;8723;51.502;6.918;2023-06-14T07:47:10;71.88;;;68.97;;
17214;SDS011;8723;51.502;6.918;2023-06-14T07:49:36;82.97;;;79.45;;
17214;SDS011;8723;51.502;6.918;2023-06-14T07:52:03;64.47;;;61.87;;
17214;SDS011;8723;51.502;6.918;2023-06-14T07:54:31;66.43;;;63.70;;
17214;SDS011;8723;51.502;6.918;2023-06-14T07:56:59;63.23;;;60.53;;
17214;SDS011;8723;51.502;6.918;2023-06-14T07:59:26;66.35;;;63.65;;
17214;SDS011;8723;51.502;6.918;2023-06-14T08:01:53;90.47;;;86.80;;
17214;SDS011;8723;51.502;6.918;2023-06-14T08:04:20;110.65;;;106.10;;
17214;SDS011;8723;51.502;6.918;2023-06-14T08:06:46;72.60;;;69.45;;
17214;SDS011;8723;51.502;6.918;2023-06-14T08:09:14;80.70;;;77.20;;
17214;SDS011;8723;51.502;6.918;2023-06-14T08:11:41;70.82;;;67.75;;
17214;SDS011;8723;51.502;6.918;2023-06-14T08:14:09;76.60;;;73.53;;
17214;SDS011;8723;51.502;6.918;2023-06-14T08:16:36;39.63;;;37.90;;
17214;SDS011;8723;51.502;6.918;2023-06-14T08:19:03;88.40;;;84.75;;
17214;SDS011;8723;51.502;6.918;2023-06-14T08:21:30;57.50;;;55.00;;
17214;SDS011;8723;51.502;6.918;2023-06-14T08:23:58;60.70;;;58.10;;
17214;SDS011;8723;51.502;6.918;2023-06-14T08:26:25;56.72;;;54.17;;
17214;SDS011;8723;51.502;6.918;2023-06-14T08:28:54;37.78;;;36.13;;
17214;SDS011;8723;51.502;6.918;2023-06-14T08:31:22;23.10;;;21.80;;
17214;SDS011;8723;51.502;6.918;2023-06-14T08:33:49;24.20;;;22.98;;
17214;SDS011;8723;51.502;6.918;2023-06-14T08:36:16;12.88;;;12.20;;
17214;SDS011;8723;51.502;6.918;2023-06-14T08:38:43;16.52;;;15.77;;
17214;SDS011;8723;51.502;6.918;2023-06-14T08:41:10;15.30;;;14.52;;
17214;SDS011;8723;51.502;6.918;2023-06-14T08:43:39;19.67;;;18.77;;
17214;SDS011;8723;51.502;6.918;2023-06-14T08:46:06;20.42;;;19.42;;
17214;SDS011;8723;51.502;6.918;2023-06-14T08:48:38;17.80;;;16.90;;
17214;SDS011;8723;51.502;6.918;2023-06-14T08:51:05;20.25;;;19.35;;
17214;SDS011;8723;51.502;6.918;2023-06-14T08:53:33;11.68;;;11.07;;
17214;SDS011;8723;51.502;6.918;2023-06-14T08:56:07;9.70;;;9.20;;
17214;SDS011;8723;51.502;6.918;2023-06-14T08:58:38;9.10;;;8.60;;
17214;SDS011;8723;51.502;6.918;2023-06-14T09:01:08;11.25;;;9.20;;
17214;SDS011;8723;51.502;6.918;2023-06-14T09:03:38;9.50;;;9.02;;
17214;SDS011;8723;51.502;6.918;2023-06-14T09:06:06;11.27;;;10.70;;
17214;SDS011;8723;51.502;6.918;2023-06-14T09:08:33;11.70;;;11.13;;
17214;SDS011;8723;51.502;6.918;2023-06-14T09:11:01;12.90;;;12.23;;
17214;SDS011;8723;51.502;6.918;2023-06-14T09:13:28;9.30;;;8.80;;
17214;SDS011;8723;51.502;6.918;2023-06-14T09:15:54;14.02;;;13.43;;
17214;SDS011;8723;51.502;6.918;2023-06-14T09:18:21;13.93;;;13.32;;
17214;SDS011;8723;51.502;6.918;2023-06-14T09:21:00;21.50;;;20.40;;
17214;SDS011;8723;51.502;6.918;2023-06-14T09:23:27;16.13;;;15.15;;
17214;SDS011;8723;51.502;6.918;2023-06-14T09:25:54;12.95;;;12.45;;
17214;SDS011;8723;51.502;6.918;2023-06-14T09:28:26;14.60;;;14.00;;
17214;SDS011;8723;51.502;6.918;2023-06-14T09:30:53;11.53;;;11.03;;
17214;SDS011;8723;51.502;6.918;2023-06-14T09:33:20;9.07;;;8.57;;
17214;SDS011;8723;51.502;6.918;2023-06-14T09:35:50;11.70;;;11.20;;
17214;SDS011;8723;51.502;6.918;2023-06-14T09:38:19;7.70;;;7.30;;
17214;SDS011;8723;51.502;6.918;2023-06-14T09:40:46;10.87;;;10.37;;
17214;SDS011;8723;51.502;6.918;2023-06-14T09:43:13;8.60;;;8.30;;
17214;SDS011;8723;51.502;6.918;2023-06-14T09:45:40;8.68;;;8.30;;
17214;SDS011;8723;51.502;6.918;2023-06-14T09:48:10;9.30;;;8.90;;
17214;SDS011;8723;51.502;6.918;2023-06-14T09:50:42;7.47;;;7.17;;
17214;SDS011;8723;51.502;6.918;2023-06-14T09:53:11;8.90;;;8.50;;
17214;SDS011;8723;51.502;6.918;2023-06-14T09:55:41;10.77;;;10.38;;
17214;SDS011;8723;51.502;6.918;2023-06-14T09:58:09;6.57;;;6.28;;
17214;SDS011;8723;51.502;6.918;2023-06-14T10:00:38;7.53;;;7.22;;
17214;SDS011;8723;51.502;6.918;2023-06-14T10:03:09;9.70;;;9.10;;
17214;SDS011;8723;51.502;6.918;2023-06-14T10:05:39;6.20;;;5.90;;
17214;SDS011;8723;51.502;6.918;2023-06-14T10:08:08;5.07;;;4.57;;
17214;SDS011;8723;51.502;6.918;2023-06-14T10:10:38;4.10;;;3.90;;
17214;SDS011;8723;51.502;6.918;2023-06-14T10:13:07;6.13;;;5.72;;
17214;SDS011;8723;51.502;6.918;2023-06-14T10:15:35;5.53;;;4.72;;
17214;SDS011;8723;51.502;6.918;2023-06-14T10:18:11;10.30;;;9.82;;
17214;SDS011;8723;51.502;6.918;2023-06-14T10:20:48;5.30;;;5.00;;
17214;SDS011;8723;51.502;6.918;2023-06-14T10:23:22;4.65;;;4.45;;
17214;SDS011;8723;51.502;6.918;2023-06-14T10:25:54;9.95;;;9.55;;
17214;SDS011;8723;51.502;6.918;2023-06-14T10:28:24;12.05;;;11.45;;
17214;SDS011;8723;51.502;6.918;2023-06-14T10:31:01;13.25;;;12.65;;
17214;SDS011;8723;51.502;6.918;2023-06-14T10:33:32;14.52;;;13.73;;
17214;SDS011;8723;51.502;6.918;2023-06-14T10:36:07;21.58;;;20.77;;
17214;SDS011;8723;51.502;6.918;2023-06-14T10:38:35;24.88;;;23.88;;
17214;SDS011;8723;51.502;6.918;2023-06-14T10:41:03;17.52;;;16.73;;
17214;SDS011;8723;51.502;6.918;2023-06-14T10:43:32;31.23;;;29.97;;
17214;SDS011;8723;51.502;6.918;2023-06-14T10:46:12;18.93;;;18.13;;
17214;SDS011;8723;51.502;6.918;2023-06-14T10:48:40;11.50;;;10.90;;
17214;SDS011;8723;51.502;6.918;2023-06-14T10:51:13;18.17;;;17.38;;
17214;SDS011;8723;51.502;6.918;2023-06-14T10:53:45;27.93;;;26.83;;
17214;SDS011;8723;51.502;6.918;2023-06-14T10:56:22;9.02;;;8.60;;
17214;SDS011;8723;51.502;6.918;2023-06-14T10:58:52;8.10;;;7.70;;
17214;SDS011;8723;51.502;6.918;2023-06-14T11:01:23;5.68;;;5.47;;
17214;SDS011;8723;51.502;6.918;2023-06-14T11:04:00;9.18;;;8.75;;
17214;SDS011;8723;51.502;6.918;2023-06-14T11:06:45;5.73;;;5.33;;
17214;SDS011;8723;51.502;6.918;2023-06-14T11:12:25;9.53;;;9.10;;
17214;SDS011;8723;51.502;6.918;2023-06-14T11:14:55;13.63;;;13.13;;
17214;SDS011;8723;51.502;6.918;2023-06-14T11:17:24;16.83;;;16.08;;
17214;SDS011;8723;51.502;6.918;2023-06-14T11:20:06;14.13;;;13.63;;
17214;SDS011;8723;51.502;6.918;2023-06-14T11:22:38;5.88;;;5.57;;
17214;SDS011;8723;51.502;6.918;2023-06-14T11:25:08;12.07;;;11.52;;
17214;SDS011;8723;51.502;6.918;2023-06-14T11:27:35;16.00;;;15.30;;
17214;SDS011;8723;51.502;6.918;2023-06-14T11:30:03;18.25;;;17.45;;
17214;SDS011;8723;51.502;6.918;2023-06-14T11:32:33;14.50;;;13.95;;
17214;SDS011;8723;51.502;6.918;2023-06-14T11:34:59;18.00;;;17.27;;
17214;SDS011;8723;51.502;6.918;2023-06-14T11:37:28;13.43;;;12.73;;
17214;SDS011;8723;51.502;6.918;2023-06-14T11:39:55;10.98;;;10.48;;
17214;SDS011;8723;51.502;6.918;2023-06-14T11:42:22;10.47;;;10.07;;
17214;SDS011;8723;51.502;6.918;2023-06-14T11:44:50;5.65;;;5.35;;
17214;SDS011;8723;51.502;6.918;2023-06-14T11:47:18;5.10;;;4.70;;
17214;SDS011;8723;51.502;6.918;2023-06-14T11:49:45;13.43;;;12.82;;
17214;SDS011;8723;51.502;6.918;2023-06-14T11:52:12;15.05;;;14.45;;
17214;SDS011;8723;51.502;6.918;2023-06-14T11:54:39;15.80;;;15.00;;
17214;SDS011;8723;51.502;6.918;2023-06-14T11:57:07;28.67;;;27.35;;
17214;SDS011;8723;51.502;6.918;2023-06-14T11:59:37;29.85;;;28.65;;
17214;SDS011;8723;51.502;6.918;2023-06-14T12:02:05;32.72;;;31.23;;
17214;SDS011;8723;51.502;6.918;2023-06-14T12:04:33;28.50;;;27.40;;
17214;SDS011;8723;51.502;6.918;2023-06-14T12:07:08;25.58;;;24.55;;
17214;SDS011;8723;51.502;6.918;2023-06-14T12:09:39;25.52;;;24.50;;
17214;SDS011;8723;51.502;6.918;2023-06-14T12:12:08;21.40;;;20.45;;
17214;SDS011;8723;51.502;6.918;2023-06-14T12:14:36;32.22;;;30.92;;
17214;SDS011;8723;51.502;6.918;2023-06-14T12:17:06;35.17;;;33.73;;
17214;SDS011;8723;51.502;6.918;2023-06-14T12:19:34;27.60;;;26.47;;
17214;SDS011;8723;51.502;6.918;2023-06-14T12:22:09;33.13;;;31.90;;
17214;SDS011;8723;51.502;6.918;2023-06-14T12:24:36;33.65;;;32.25;;
17214;SDS011;8723;51.502;6.918;2023-06-14T12:27:04;29.53;;;28.33;;
17214;SDS011;8723;51.502;6.918;2023-06-14T12:29:32;36.13;;;34.72;;
17214;SDS011;8723;51.502;6.918;2023-06-14T12:31:59;35.88;;;34.42;;
17214;SDS011;8723;51.502;6.918;2023-06-14T12:34:25;29.60;;;28.38;;
17214;SDS011;8723;51.502;6.918;2023-06-14T12:36:54;27.05;;;25.98;;
17214;SDS011;8723;51.502;6.918;2023-06-14T12:39:21;42.92;;;41.22;;
17214;SDS011;8723;51.502;6.918;2023-06-14T12:41:48;41.07;;;39.47;;
17214;SDS011;8723;51.502;6.918;2023-06-14T12:44:15;54.72;;;52.45;;
17214;SDS011;8723;51.502;6.918;2023-06-14T12:46:42;48.55;;;46.65;;
17214;SDS011;8723;51.502;6.918;2023-06-14T12:49:09;44.53;;;42.67;;
17214;SDS011;8723;51.502;6.918;2023-06-14T12:51:37;39.63;;;38.03;;
17214;SDS011;8723;51.502;6.918;2023-06-14T12:54:06;38.83;;;37.28;;
17214;SDS011;8723;51.502;6.918;2023-06-14T12:56:33;38.47;;;36.78;;
17214;SDS011;8723;51.502;6.918;2023-06-14T12:59:00;34.65;;;33.28;;
17214;SDS011;8723;51.502;6.918;2023-06-14T13:01:26;46.22;;;44.33;;
17214;SDS011;8723;51.502;6.918;2023-06-14T13:03:53;45.47;;;43.67;;
17214;SDS011;8723;51.502;6.918;2023-06-14T13:06:20;42.43;;;40.63;;
17214;SDS011;8723;51.502;6.918;2023-06-14T13:08:48;41.55;;;39.90;;
17214;SDS011;8723;51.502;6.918;2023-06-14T13:11:16;44.92;;;43.08;;
17214;SDS011;8723;51.502;6.918;2023-06-14T13:13:43;45.23;;;43.43;;
17214;SDS011;8723;51.502;6.918;2023-06-14T13:16:10;43.45;;;41.70;;
17214;SDS011;8723;51.502;6.918;2023-06-14T13:18:47;44.80;;;42.95;;
17214;SDS011;8723;51.502;6.918;2023-06-14T13:21:14;47.30;;;45.40;;
17214;SDS011;8723;51.502;6.918;2023-06-14T13:23:40;46.70;;;44.90;;
17214;SDS011;8723;51.502;6.918;2023-06-14T13:26:07;58.30;;;56.08;;
17214;SDS011;8723;51.502;6.918;2023-06-14T13:28:34;48.60;;;46.70;;
17214;SDS011;8723;51.502;6.918;2023-06-14T13:31:01;44.13;;;42.35;;
17214;SDS011;8723;51.502;6.918;2023-06-14T13:33:28;46.08;;;44.10;;
17214;SDS011;8723;51.502;6.918;2023-06-14T13:35:57;35.85;;;34.35;;
17214;SDS011;8723;51.502;6.918;2023-06-14T13:38:23;19.50;;;18.60;;
17214;SDS011;8723;51.502;6.918;2023-06-14T13:40:50;11.52;;;11.02;;
17214;SDS011;8723;51.502;6.918;2023-06-14T13:43:17;7.60;;;7.30;;
17214;SDS011;8723;51.502;6.918;2023-06-14T13:45:44;5.78;;;5.47;;
17214;SDS011;8723;51.502;6.918;2023-06-14T13:48:11;5.63;;;5.32;;
17214;SDS011;8723;51.502;6.918;2023-06-14T13:50:38;4.22;;;3.95;;
17214;SDS011;8723;51.502;6.918;2023-06-14T13:53:06;4.20;;;4.00;;
17214;SDS011;8723;51.502;6.918;2023-06-14T13:55:33;2.90;;;2.70;;
17214;SDS011;8723;51.502;6.918;2023-06-14T13:58:00;2.70;;;2.50;;
17214;SDS011;8723;51.502;6.918;2023-06-14T14:00:26;2.83;;;2.63;;
17214;SDS011;8723;51.502;6.918;2023-06-14T14:02:53;3.10;;;2.78;;
17214;SDS011;8723;51.502;6.918;2023-06-14T14:05:22;4.43;;;4.13;;
17214;SDS011;8723;51.502;6.918;2023-06-14T14:07:53;3.42;;;3.13;;
17214;SDS011;8723;51.502;6.918;2023-06-14T14:10:22;4.07;;;3.88;;
17214;SDS011;8723;51.502;6.918;2023-06-14T14:12:49;3.70;;;3.38;;
17214;SDS011;8723;51.502;6.918;2023-06-14T14:15:17;4.97;;;2.70;;
17214;SDS011;8723;51.502;6.918;2023-06-14T14:17:44;3.92;;;3.67;;
17214;SDS011;8723;51.502;6.918;2023-06-14T14:20:12;3.20;;;3.00;;
17214;SDS011;8723;51.502;6.918;2023-06-14T14:22:40;5.53;;;5.13;;
17214;SDS011;8723;51.502;6.918;2023-06-14T14:25:07;5.03;;;4.70;;
17214;SDS011;8723;51.502;6.918;2023-06-14T14:27:37;21.08;;;20.08;;
17214;SDS011;8723;51.502;6.918;2023-06-14T14:30:05;33.63;;;32.33;;
17214;SDS011;8723;51.502;6.918;2023-06-14T14:32:32;65.07;;;62.57;;
17214;SDS011;8723;51.502;6.918;2023-06-14T14:34:59;68.65;;;65.93;;
17214;SDS011;8723;51.502;6.918;2023-06-14T14:37:26;78.47;;;75.47;;
17214;SDS011;8723;51.502;6.918;2023-06-14T14:39:52;75.88;;;72.97;;
17214;SDS011;8723;51.502;6.918;2023-06-14T14:42:19;73.15;;;70.35;;
17214;SDS011;8723;51.502;6.918;2023-06-14T14:44:47;64.97;;;62.43;;
17214;SDS011;8723;51.502;6.918;2023-06-14T14:47:14;73.00;;;70.10;;